sensor_id;sensor_type;location;lat;lon;timestamp;pressure;altitude;pressure_sealevel;temperature;humidity
74895;BME280;63447;49.446;8.666;2023-03-11T00:00:42;99434.31;;;1.99;69.38
74895;BME280;63447;49.446;8.666;2023-03-11T00:03:12;99446.00;;;2.00;67.43
74895;BME280;63447;49.446;8.666;2023-03-11T00:05:41;99426.59;;;1.88;67.15
74895;BME280;63447;49.446;8.666;2023-03-11T00:08:12;99463.44;;;1.99;66.45
74895;BME280;63447;49.446;8.666;2023-03-11T00:10:40;99464.53;;;1.98;65.74
74895;BME280;63447;49.446;8.666;2023-03-11T00:13:07;99464.59;;;1.93;65.97
74895;BME280;63447;49.446;8.666;2023-03-11T00:15:36;99464.59;;;1.93;65.88
74895;BME280;63447;49.446;8.666;2023-03-11T00:18:02;99453.81;;;1.88;65.66
74895;BME280;63447;49.446;8.666;2023-03-11T00:20:34;99458.44;;;1.87;65.09
74895;BME280;63447;49.446;8.666;2023-03-11T00:23:00;99457.03;;;1.90;63.68
74895;BME280;63447;49.446;8.666;2023-03-11T00:25:31;99451.59;;;1.90;62.97
74895;BME280;63447;49.446;8.666;2023-03-11T00:27:58;99465.72;;;1.92;61.89
74895;BME280;63447;49.446;8.666;2023-03-11T00:30:26;99463.88;;;1.87;61.24
74895;BME280;63447;49.446;8.666;2023-03-11T00:32:53;99456.53;;;1.88;61.86
74895;BME280;63447;49.446;8.666;2023-03-11T00:35:25;99485.84;;;1.91;62.24
74895;BME280;63447;49.446;8.666;2023-03-11T00:37:56;99476.38;;;1.88;63.00
74895;BME280;63447;49.446;8.666;2023-03-11T00:40:26;99475.53;;;1.74;62.20
74895;BME280;63447;49.446;8.666;2023-03-11T00:42:54;99496.59;;;1.82;63.18
74895;BME280;63447;49.446;8.666;2023-03-11T00:45:20;99496.91;;;1.81;63.39
74895;BME280;63447;49.446;8.666;2023-03-11T00:47:49;99487.00;;;1.71;62.86
74895;BME280;63447;49.446;8.666;2023-03-11T00:50:21;99493.47;;;1.75;61.97
74895;BME280;63447;49.446;8.666;2023-03-11T00:52:50;99496.25;;;1.70;63.21
74895;BME280;63447;49.446;8.666;2023-03-11T00:55:25;99499.25;;;1.68;62.38
74895;BME280;63447;49.446;8.666;2023-03-11T00:57:59;99476.84;;;1.58;63.48
74895;BME280;63447;49.446;8.666;2023-03-11T01:00:27;99502.63;;;1.60;63.64
74895;BME280;63447;49.446;8.666;2023-03-11T01:02:54;99484.50;;;1.56;65.01
74895;BME280;63447;49.446;8.666;2023-03-11T01:05:21;99487.28;;;1.51;64.09
74895;BME280;63447;49.446;8.666;2023-03-11T01:07:49;99510.56;;;1.57;64.11
74895;BME280;63447;49.446;8.666;2023-03-11T01:10:19;99506.56;;;1.54;63.56
74895;BME280;63447;49.446;8.666;2023-03-11T01:12:45;99521.97;;;1.59;64.16
74895;BME280;63447;49.446;8.666;2023-03-11T01:15:39;99517.13;;;1.56;64.51
74895;BME280;63447;49.446;8.666;2023-03-11T01:18:05;99495.97;;;1.53;64.31
74895;BME280;63447;49.446;8.666;2023-03-11T01:20:31;99501.19;;;1.49;64.93
74895;BME280;63447;49.446;8.666;2023-03-11T01:22:56;99475.22;;;1.38;65.06
74895;BME280;63447;49.446;8.666;2023-03-11T01:25:24;99483.59;;;1.42;65.52
74895;BME280;63447;49.446;8.666;2023-03-11T01:27:56;99490.16;;;1.41;65.41
74895;BME280;63447;49.446;8.666;2023-03-11T01:30:24;99491.75;;;1.42;66.01
74895;BME280;63447;49.446;8.666;2023-03-11T01:32:52;99476.69;;;1.30;65.63
74895;BME280;63447;49.446;8.666;2023-03-11T01:35:19;99481.34;;;1.30;64.92
74895;BME280;63447;49.446;8.666;2023-03-11T01:37:44;99482.06;;;1.35;65.72
74895;BME280;63447;49.446;8.666;2023-03-11T01:40:18;99479.41;;;1.30;65.31
74895;BME280;63447;49.446;8.666;2023-03-11T01:42:47;99485.44;;;1.27;65.25
74895;BME280;63447;49.446;8.666;2023-03-11T01:48:18;99505.78;;;1.30;65.58
74895;BME280;63447;49.446;8.666;2023-03-11T01:50:49;99510.44;;;1.29;66.33
74895;BME280;63447;49.446;8.666;2023-03-11T01:53:18;99502.09;;;1.21;67.06
74895;BME280;63447;49.446;8.666;2023-03-11T01:55:49;99497.47;;;1.21;66.18
74895;BME280;63447;49.446;8.666;2023-03-11T01:58:21;99518.19;;;1.36;65.71
74895;BME280;63447;49.446;8.666;2023-03-11T02:00:47;99501.47;;;1.29;65.80
74895;BME280;63447;49.446;8.666;2023-03-11T02:03:18;99515.53;;;1.31;65.28
74895;BME280;63447;49.446;8.666;2023-03-11T02:05:46;99535.78;;;1.44;65.23
74895;BME280;63447;49.446;8.666;2023-03-11T02:08:13;99542.00;;;1.44;66.25
74895;BME280;63447;49.446;8.666;2023-03-11T02:10:41;99544.78;;;1.39;65.43
74895;BME280;63447;49.446;8.666;2023-03-11T02:13:08;99551.78;;;1.45;65.59
74895;BME280;63447;49.446;8.666;2023-03-11T02:15:39;99551.50;;;1.47;65.16
74895;BME280;63447;49.446;8.666;2023-03-11T02:18:06;99549.88;;;1.46;65.02
74895;BME280;63447;49.446;8.666;2023-03-11T02:23:38;99546.22;;;1.55;63.52
74895;BME280;63447;49.446;8.666;2023-03-11T02:26:24;99532.63;;;1.55;63.99
74895;BME280;63447;49.446;8.666;2023-03-11T02:28:52;99516.91;;;1.52;64.54
74895;BME280;63447;49.446;8.666;2023-03-11T02:31:18;99509.84;;;1.51;63.98
74895;BME280;63447;49.446;8.666;2023-03-11T02:33:51;99529.25;;;1.63;64.14
74895;BME280;63447;49.446;8.666;2023-03-11T02:36:35;99525.72;;;1.63;64.82
74895;BME280;63447;49.446;8.666;2023-03-11T02:39:01;99519.25;;;1.59;64.99
74895;BME280;63447;49.446;8.666;2023-03-11T02:41:27;99523.34;;;1.56;64.51
74895;BME280;63447;49.446;8.666;2023-03-11T02:43:56;99518.28;;;1.50;64.41
74895;BME280;63447;49.446;8.666;2023-03-11T02:46:27;99525.94;;;1.48;63.39
74895;BME280;63447;49.446;8.666;2023-03-11T02:48:55;99516.81;;;1.39;63.29
74895;BME280;63447;49.446;8.666;2023-03-11T02:51:24;99538.19;;;1.45;63.17
74895;BME280;63447;49.446;8.666;2023-03-11T02:53:53;99545.31;;;1.41;64.10
74895;BME280;63447;49.446;8.666;2023-03-11T02:56:21;99522.75;;;1.22;63.14
74895;BME280;63447;49.446;8.666;2023-03-11T02:58:47;99539.72;;;1.32;64.51
74895;BME280;63447;49.446;8.666;2023-03-11T03:01:14;99540.50;;;1.33;64.51
74895;BME280;63447;49.446;8.666;2023-03-11T03:03:40;99536.78;;;1.29;64.68
74895;BME280;63447;49.446;8.666;2023-03-11T03:06:08;99541.56;;;1.37;64.74
74895;BME280;63447;49.446;8.666;2023-03-11T03:08:34;99543.53;;;1.31;64.45
74895;BME280;63447;49.446;8.666;2023-03-11T03:10:59;99530.53;;;1.28;65.33
74895;BME280;63447;49.446;8.666;2023-03-11T03:13:26;99547.06;;;1.32;65.12
74895;BME280;63447;49.446;8.666;2023-03-11T03:15:53;99538.53;;;1.20;65.39
74895;BME280;63447;49.446;8.666;2023-03-11T03:18:21;99535.06;;;1.14;64.41
74895;BME280;63447;49.446;8.666;2023-03-11T03:20:49;99541.34;;;1.10;65.00
74895;BME280;63447;49.446;8.666;2023-03-11T03:23:19;99560.19;;;1.25;65.42
74895;BME280;63447;49.446;8.666;2023-03-11T03:25:46;99563.50;;;1.22;64.97
74895;BME280;63447;49.446;8.666;2023-03-11T03:28:17;99562.22;;;1.14;65.56
74895;BME280;63447;49.446;8.666;2023-03-11T03:30:44;99574.41;;;1.17;65.32
74895;BME280;63447;49.446;8.666;2023-03-11T03:33:10;99570.38;;;1.14;65.78
74895;BME280;63447;49.446;8.666;2023-03-11T03:35:39;99587.94;;;1.22;65.31
74895;BME280;63447;49.446;8.666;2023-03-11T03:38:05;99584.72;;;1.20;65.68
74895;BME280;63447;49.446;8.666;2023-03-11T03:40:33;99577.94;;;1.17;66.76
74895;BME280;63447;49.446;8.666;2023-03-11T03:43:00;99580.44;;;1.14;66.49
74895;BME280;63447;49.446;8.666;2023-03-11T03:45:28;99589.69;;;1.13;65.99
74895;BME280;63447;49.446;8.666;2023-03-11T03:47:59;99588.91;;;1.07;66.14
74895;BME280;63447;49.446;8.666;2023-03-11T03:50:24;99577.09;;;0.98;65.88
74895;BME280;63447;49.446;8.666;2023-03-11T03:52:54;99577.66;;;0.95;66.88
74895;BME280;63447;49.446;8.666;2023-03-11T03:55:19;99585.28;;;0.93;66.38
74895;BME280;63447;49.446;8.666;2023-03-11T03:57:45;99590.94;;;0.96;66.63
74895;BME280;63447;49.446;8.666;2023-03-11T04:00:10;99577.75;;;0.85;65.45
74895;BME280;63447;49.446;8.666;2023-03-11T04:02:36;99588.59;;;0.85;66.32
74895;BME280;63447;49.446;8.666;2023-03-11T04:05:02;99602.91;;;0.95;66.95
74895;BME280;63447;49.446;8.666;2023-03-11T04:07:30;99599.38;;;0.95;66.20
74895;BME280;63447;49.446;8.666;2023-03-11T04:09:59;99597.16;;;1.02;67.19
74895;BME280;63447;49.446;8.666;2023-03-11T04:12:24;99586.31;;;0.97;67.04
74895;BME280;63447;49.446;8.666;2023-03-11T04:14:52;99588.47;;;1.00;67.22
74895;BME280;63447;49.446;8.666;2023-03-11T04:17:20;99584.38;;;1.02;66.64
74895;BME280;63447;49.446;8.666;2023-03-11T04:19:45;99591.81;;;1.16;66.89
74895;BME280;63447;49.446;8.666;2023-03-11T04:22:13;99600.44;;;1.23;67.52
74895;BME280;63447;49.446;8.666;2023-03-11T04:24:40;99607.66;;;1.32;67.13
74895;BME280;63447;49.446;8.666;2023-03-11T04:27:08;99580.44;;;1.14;66.00
74895;BME280;63447;49.446;8.666;2023-03-11T04:29:34;99619.22;;;1.43;65.36
74895;BME280;63447;49.446;8.666;2023-03-11T04:32:04;99611.41;;;1.36;65.87
74895;BME280;63447;49.446;8.666;2023-03-11T04:34:32;99614.31;;;1.45;65.48
74895;BME280;63447;49.446;8.666;2023-03-11T04:36:57;99625.66;;;1.52;65.65
74895;BME280;63447;49.446;8.666;2023-03-11T04:39:29;99613.22;;;1.46;65.84
74895;BME280;63447;49.446;8.666;2023-03-11T04:41:59;99620.50;;;1.51;66.10
74895;BME280;63447;49.446;8.666;2023-03-11T04:44:25;99626.16;;;1.54;65.84
74895;BME280;63447;49.446;8.666;2023-03-11T04:46:50;99625.41;;;1.49;64.34
74895;BME280;63447;49.446;8.666;2023-03-11T04:49:16;99618.63;;;1.46;64.72
74895;BME280;63447;49.446;8.666;2023-03-11T04:51:46;99611.88;;;1.44;65.33
74895;BME280;63447;49.446;8.666;2023-03-11T04:54:14;99608.41;;;1.38;64.29
74895;BME280;63447;49.446;8.666;2023-03-11T04:56:39;99603.31;;;1.31;64.99
74895;BME280;63447;49.446;8.666;2023-03-11T04:59:07;99626.09;;;1.35;63.86
74895;BME280;63447;49.446;8.666;2023-03-11T05:01:32;99633.72;;;1.33;64.28
74895;BME280;63447;49.446;8.666;2023-03-11T05:04:00;99620.03;;;1.20;65.47
74895;BME280;63447;49.446;8.666;2023-03-11T05:06:25;99636.84;;;1.22;65.39
74895;BME280;63447;49.446;8.666;2023-03-11T05:08:50;99639.06;;;1.20;65.25
74895;BME280;63447;49.446;8.666;2023-03-11T05:11:20;99635.28;;;1.16;65.42
74895;BME280;63447;49.446;8.666;2023-03-11T05:13:45;99645.06;;;1.17;65.82
74895;BME280;63447;49.446;8.666;2023-03-11T05:16:12;99640.72;;;1.16;65.85
74895;BME280;63447;49.446;8.666;2023-03-11T05:18:38;99642.63;;;1.15;66.19
74895;BME280;63447;49.446;8.666;2023-03-11T05:21:03;99637.81;;;1.07;66.57
74895;BME280;63447;49.446;8.666;2023-03-11T05:23:29;99619.72;;;0.97;66.53
74895;BME280;63447;49.446;8.666;2023-03-11T05:25:54;99641.50;;;0.92;67.04
74895;BME280;63447;49.446;8.666;2023-03-11T05:28:19;99641.25;;;0.89;68.21
74895;BME280;63447;49.446;8.666;2023-03-11T05:30:45;99625.38;;;0.77;68.51
74895;BME280;63447;49.446;8.666;2023-03-11T05:33:10;99600.34;;;0.51;69.20
74895;BME280;63447;49.446;8.666;2023-03-11T05:35:35;99658.13;;;0.86;68.46
74895;BME280;63447;49.446;8.666;2023-03-11T05:38:01;99660.50;;;0.92;67.72
74895;BME280;63447;49.446;8.666;2023-03-11T05:40:26;99674.00;;;1.02;67.92
74895;BME280;63447;49.446;8.666;2023-03-11T05:42:51;99651.00;;;0.95;68.08
74895;BME280;63447;49.446;8.666;2023-03-11T05:45:19;99672.28;;;1.12;67.64
74895;BME280;63447;49.446;8.666;2023-03-11T05:47:44;99677.94;;;1.15;66.93
74895;BME280;63447;49.446;8.666;2023-03-11T05:50:11;99677.91;;;1.20;67.46
74895;BME280;63447;49.446;8.666;2023-03-11T05:52:36;99665.69;;;1.18;66.59
74895;BME280;63447;49.446;8.666;2023-03-11T05:55:02;99673.16;;;1.31;66.26
74895;BME280;63447;49.446;8.666;2023-03-11T05:57:30;99680.13;;;1.42;66.10
74895;BME280;63447;49.446;8.666;2023-03-11T05:59:55;99658.03;;;1.25;63.79
74895;BME280;63447;49.446;8.666;2023-03-11T06:02:21;99674.22;;;1.35;64.87
74895;BME280;63447;49.446;8.666;2023-03-11T06:04:47;99678.78;;;1.40;64.64
74895;BME280;63447;49.446;8.666;2023-03-11T06:07:17;99659.88;;;1.29;65.03
74895;BME280;63447;49.446;8.666;2023-03-11T06:09:42;99671.78;;;1.33;64.32
74895;BME280;63447;49.446;8.666;2023-03-11T06:12:08;99672.78;;;1.43;64.21
74895;BME280;63447;49.446;8.666;2023-03-11T06:14:33;99676.31;;;1.43;64.84
74895;BME280;63447;49.446;8.666;2023-03-11T06:16:58;99666.19;;;1.49;64.15
74895;BME280;63447;49.446;8.666;2023-03-11T06:19:28;99654.59;;;1.38;64.62
74895;BME280;63447;49.446;8.666;2023-03-11T06:21:53;99661.44;;;1.35;64.56
74895;BME280;63447;49.446;8.666;2023-03-11T06:24:18;99676.88;;;1.40;65.07
74895;BME280;63447;49.446;8.666;2023-03-11T06:26:44;99687.88;;;1.54;65.19
74895;BME280;63447;49.446;8.666;2023-03-11T06:29:13;99671.34;;;1.50;65.40
74895;BME280;63447;49.446;8.666;2023-03-11T06:31:39;99694.47;;;1.72;64.89
74895;BME280;63447;49.446;8.666;2023-03-11T06:34:04;99703.91;;;1.79;64.75
74895;BME280;63447;49.446;8.666;2023-03-11T06:36:33;99709.50;;;1.88;64.49
74895;BME280;63447;49.446;8.666;2023-03-11T06:38:58;99692.13;;;1.84;63.84
74895;BME280;63447;49.446;8.666;2023-03-11T06:41:26;99710.00;;;1.90;64.20
74895;BME280;63447;49.446;8.666;2023-03-11T06:43:51;99686.47;;;1.80;63.71
74895;BME280;63447;49.446;8.666;2023-03-11T06:46:21;99721.81;;;2.04;63.37
74895;BME280;63447;49.446;8.666;2023-03-11T06:48:49;99738.78;;;1.96;63.89
74895;BME280;63447;49.446;8.666;2023-03-11T06:51:20;99738.72;;;2.01;62.89
74895;BME280;63447;49.446;8.666;2023-03-11T06:53:50;99740.63;;;2.00;62.47
74895;BME280;63447;49.446;8.666;2023-03-11T06:56:16;99744.69;;;2.03;63.64
74895;BME280;63447;49.446;8.666;2023-03-11T06:58:44;99752.47;;;2.10;64.39
74895;BME280;63447;49.446;8.666;2023-03-11T07:01:13;99722.81;;;1.89;63.22
74895;BME280;63447;49.446;8.666;2023-03-11T07:03:39;99759.34;;;2.07;63.70
74895;BME280;63447;49.446;8.666;2023-03-11T07:06:05;99720.50;;;1.78;63.03
74895;BME280;63447;49.446;8.666;2023-03-11T07:08:33;99769.91;;;1.85;62.88
74895;BME280;63447;49.446;8.666;2023-03-11T07:11:07;99780.44;;;1.67;62.85
74895;BME280;63447;49.446;8.666;2023-03-11T07:13:35;99770.34;;;1.44;63.13
74895;BME280;63447;49.446;8.666;2023-03-11T07:16:11;99763.88;;;1.64;63.54
74895;BME280;63447;49.446;8.666;2023-03-11T07:18:36;99772.28;;;1.91;63.70
74895;BME280;63447;49.446;8.666;2023-03-11T07:21:04;99769.81;;;1.95;62.26
74895;BME280;63447;49.446;8.666;2023-03-11T07:23:30;99785.84;;;1.96;63.76
74895;BME280;63447;49.446;8.666;2023-03-11T07:25:55;99785.13;;;2.10;64.08
74895;BME280;63447;49.446;8.666;2023-03-11T07:28:24;99792.13;;;1.92;63.05
74895;BME280;63447;49.446;8.666;2023-03-11T07:30:50;99799.91;;;1.80;62.86
74895;BME280;63447;49.446;8.666;2023-03-11T07:33:16;99779.25;;;1.79;64.62
74895;BME280;63447;49.446;8.666;2023-03-11T07:35:44;99787.03;;;2.09;64.69
74895;BME280;63447;49.446;8.666;2023-03-11T07:38:09;99796.75;;;2.39;63.92
74895;BME280;63447;49.446;8.666;2023-03-11T07:40:35;99811.50;;;2.57;62.58
74895;BME280;63447;49.446;8.666;2023-03-11T07:43:01;99793.44;;;2.42;61.90
74895;BME280;63447;49.446;8.666;2023-03-11T07:45:32;99810.84;;;2.84;62.68
74895;BME280;63447;49.446;8.666;2023-03-11T07:47:57;99799.66;;;2.85;61.34
74895;BME280;63447;49.446;8.666;2023-03-11T07:50:23;99824.31;;;2.75;59.08
74895;BME280;63447;49.446;8.666;2023-03-11T07:52:48;99815.09;;;2.71;59.35
74895;BME280;63447;49.446;8.666;2023-03-11T07:55:14;99815.69;;;2.68;60.65
74895;BME280;63447;49.446;8.666;2023-03-11T07:57:39;99809.19;;;2.45;59.98
74895;BME280;63447;49.446;8.666;2023-03-11T08:00:05;99834.13;;;2.76;59.78
74895;BME280;63447;49.446;8.666;2023-03-11T08:02:31;99840.47;;;3.09;59.09
74895;BME280;63447;49.446;8.666;2023-03-11T08:04:58;99852.53;;;3.03;58.78
74895;BME280;63447;49.446;8.666;2023-03-11T08:07:24;99847.44;;;3.15;59.47
74895;BME280;63447;49.446;8.666;2023-03-11T08:09:49;99846.44;;;3.11;58.74
74895;BME280;63447;49.446;8.666;2023-03-11T08:12:14;99839.19;;;2.83;59.49
74895;BME280;63447;49.446;8.666;2023-03-11T08:14:40;99865.72;;;2.96;57.48
74895;BME280;63447;49.446;8.666;2023-03-11T08:17:08;99867.25;;;2.83;59.09
74895;BME280;63447;49.446;8.666;2023-03-11T08:19:33;99877.88;;;2.85;60.23
74895;BME280;63447;49.446;8.666;2023-03-11T08:22:02;99879.34;;;2.96;60.23
74895;BME280;63447;49.446;8.666;2023-03-11T08:24:29;99870.81;;;3.02;59.83
74895;BME280;63447;49.446;8.666;2023-03-11T08:26:55;99883.78;;;3.11;59.76
74895;BME280;63447;49.446;8.666;2023-03-11T08:29:22;99865.34;;;3.02;58.80
74895;BME280;63447;49.446;8.666;2023-03-11T08:31:49;99879.72;;;3.08;59.90
74895;BME280;63447;49.446;8.666;2023-03-11T08:34:20;99881.56;;;3.31;62.72
74895;BME280;63447;49.446;8.666;2023-03-11T08:36:46;99886.44;;;3.67;63.89
74895;BME280;63447;49.446;8.666;2023-03-11T08:39:11;99895.28;;;4.37;63.96
74895;BME280;63447;49.446;8.666;2023-03-11T08:41:37;99858.84;;;4.56;60.94
74895;BME280;63447;49.446;8.666;2023-03-11T08:44:02;99884.03;;;4.80;56.24
74895;BME280;63447;49.446;8.666;2023-03-11T08:46:30;99884.50;;;5.09;55.73
74895;BME280;63447;49.446;8.666;2023-03-11T08:48:57;99870.41;;;4.66;55.07
74895;BME280;63447;49.446;8.666;2023-03-11T08:51:25;99855.13;;;5.15;53.92
74895;BME280;63447;49.446;8.666;2023-03-11T08:53:50;99872.25;;;5.43;54.92
74895;BME280;63447;49.446;8.666;2023-03-11T08:56:16;99864.84;;;5.43;51.32
74895;BME280;63447;49.446;8.666;2023-03-11T08:58:42;99871.47;;;5.29;53.82
74895;BME280;63447;49.446;8.666;2023-03-11T09:01:07;99891.22;;;5.62;52.69
74895;BME280;63447;49.446;8.666;2023-03-11T09:03:34;99867.88;;;5.87;51.84
74895;BME280;63447;49.446;8.666;2023-03-11T09:06:03;99886.72;;;6.10;52.03
74895;BME280;63447;49.446;8.666;2023-03-11T09:08:32;99888.56;;;5.93;50.48
74895;BME280;63447;49.446;8.666;2023-03-11T09:10:57;99883.16;;;6.41;50.14
74895;BME280;63447;49.446;8.666;2023-03-11T09:13:22;99888.31;;;6.42;51.17
74895;BME280;63447;49.446;8.666;2023-03-11T09:15:48;99897.63;;;6.81;49.96
74895;BME280;63447;49.446;8.666;2023-03-11T09:18:16;99898.31;;;6.87;49.07
74895;BME280;63447;49.446;8.666;2023-03-11T09:20:44;99875.13;;;7.36;49.18
74895;BME280;63447;49.446;8.666;2023-03-11T09:23:13;99892.88;;;7.73;46.04
74895;BME280;63447;49.446;8.666;2023-03-11T09:25:39;99887.16;;;6.83;45.97
74895;BME280;63447;49.446;8.666;2023-03-11T09:28:07;99886.09;;;7.62;46.38
74895;BME280;63447;49.446;8.666;2023-03-11T09:30:35;99866.41;;;7.42;44.27
74895;BME280;63447;49.446;8.666;2023-03-11T09:33:00;99871.56;;;7.18;43.75
74895;BME280;63447;49.446;8.666;2023-03-11T09:35:26;99870.63;;;7.23;42.91
74895;BME280;63447;49.446;8.666;2023-03-11T09:37:51;99872.19;;;6.98;46.10
74895;BME280;63447;49.446;8.666;2023-03-11T09:40:21;99881.38;;;6.93;48.20
74895;BME280;63447;49.446;8.666;2023-03-11T09:45:18;99877.28;;;6.65;48.04
74895;BME280;63447;49.446;8.666;2023-03-11T09:50:30;99881.78;;;6.61;48.16
74895;BME280;63447;49.446;8.666;2023-03-11T09:53:35;99891.34;;;6.72;46.66
74895;BME280;63447;49.446;8.666;2023-03-11T09:56:06;99877.97;;;6.88;45.52
74895;BME280;63447;49.446;8.666;2023-03-11T10:01:20;99880.78;;;7.39;44.77
74895;BME280;63447;49.446;8.666;2023-03-11T10:03:50;99869.47;;;7.41;43.32
74895;BME280;63447;49.446;8.666;2023-03-11T10:19:47;99861.84;;;6.86;41.96
74895;BME280;63447;49.446;8.666;2023-03-11T10:22:34;99873.91;;;6.76;44.34
74895;BME280;63447;49.446;8.666;2023-03-11T10:25:23;99893.72;;;6.65;43.68
74895;BME280;63447;49.446;8.666;2023-03-11T10:27:54;99886.75;;;6.59;44.30
74895;BME280;63447;49.446;8.666;2023-03-11T10:38:19;99865.41;;;9.04;39.37
74895;BME280;63447;49.446;8.666;2023-03-11T10:40:47;99877.47;;;9.74;36.50
74895;BME280;63447;49.446;8.666;2023-03-11T10:45:43;99890.25;;;9.16;34.29
74895;BME280;63447;49.446;8.666;2023-03-11T10:48:14;99898.94;;;8.98;35.75
74895;BME280;63447;49.446;8.666;2023-03-11T10:50:56;99894.97;;;8.57;34.12
74895;BME280;63447;49.446;8.666;2023-03-11T10:53:22;99889.78;;;7.92;37.30
74895;BME280;63447;49.446;8.666;2023-03-11T10:55:56;99897.69;;;7.84;37.86
74895;BME280;63447;49.446;8.666;2023-03-11T10:58:31;99911.50;;;8.48;36.90
74895;BME280;63447;49.446;8.666;2023-03-11T11:03:35;99902.88;;;9.80;34.90
74895;BME280;63447;49.446;8.666;2023-03-11T11:06:06;99902.19;;;9.83;34.25
74895;BME280;63447;49.446;8.666;2023-03-11T11:08:45;99914.22;;;8.87;36.75
74895;BME280;63447;49.446;8.666;2023-03-11T11:11:21;99914.81;;;7.90;38.89
74895;BME280;63447;49.446;8.666;2023-03-11T11:13:56;99910.94;;;7.31;39.37
74895;BME280;63447;49.446;8.666;2023-03-11T11:16:22;99893.50;;;8.04;38.81
74895;BME280;63447;49.446;8.666;2023-03-11T11:18:52;99878.81;;;7.14;40.14
74895;BME280;63447;49.446;8.666;2023-03-11T11:24:25;99909.28;;;8.07;37.61
74895;BME280;63447;49.446;8.666;2023-03-11T11:29:31;99906.84;;;9.70;36.22
74895;BME280;63447;49.446;8.666;2023-03-11T11:32:18;99909.88;;;9.57;34.79
74895;BME280;63447;49.446;8.666;2023-03-11T11:35:07;99911.72;;;9.02;34.59
74895;BME280;63447;49.446;8.666;2023-03-11T11:37:38;99908.59;;;8.83;34.10
74895;BME280;63447;49.446;8.666;2023-03-11T11:43:08;99885.34;;;9.97;33.84
74895;BME280;63447;49.446;8.666;2023-03-11T11:45:56;99898.63;;;11.09;30.66
74895;BME280;63447;49.446;8.666;2023-03-11T11:48:46;99886.88;;;11.65;31.94
74895;BME280;63447;49.446;8.666;2023-03-11T11:51:23;99875.16;;;10.79;30.96
74895;BME280;63447;49.446;8.666;2023-03-11T11:53:55;99879.69;;;11.36;30.63
74895;BME280;63447;49.446;8.666;2023-03-11T11:56:26;99869.91;;;11.78;28.62
74895;BME280;63447;49.446;8.666;2023-03-11T11:58:51;99882.09;;;11.77;27.47
74895;BME280;63447;49.446;8.666;2023-03-11T12:17:41;99875.78;;;15.29;26.98
74895;BME280;63447;49.446;8.666;2023-03-11T12:30:43;99873.25;;;17.64;20.52
74895;BME280;63447;49.446;8.666;2023-03-11T12:33:45;99878.56;;;17.21;19.29
74895;BME280;63447;49.446;8.666;2023-03-11T12:36:05;99869.06;;;18.27;17.15
74895;BME280;63447;49.446;8.666;2023-03-11T12:38:39;99843.59;;;18.89;17.70
74895;BME280;63447;49.446;8.666;2023-03-11T12:46:09;99866.72;;;19.07;16.41
74895;BME280;63447;49.446;8.666;2023-03-11T12:48:42;99857.75;;;17.01;19.49
74895;BME280;63447;49.446;8.666;2023-03-11T12:56:59;99851.66;;;15.10;23.05
74895;BME280;63447;49.446;8.666;2023-03-11T13:10:10;99861.09;;;19.36;17.45
74895;BME280;63447;49.446;8.666;2023-03-11T13:17:55;99860.03;;;17.54;18.70
74895;BME280;63447;49.446;8.666;2023-03-11T13:25:40;99866.72;;;18.36;19.14
74895;BME280;63447;49.446;8.666;2023-03-11T13:30:59;99887.13;;;16.88;19.20
74895;BME280;63447;49.446;8.666;2023-03-11T13:36:38;99897.06;;;13.84;23.61
74895;BME280;63447;49.446;8.666;2023-03-11T13:45:00;99894.28;;;12.95;26.19
74895;BME280;63447;49.446;8.666;2023-03-11T13:47:30;99896.69;;;12.49;25.99
74895;BME280;63447;49.446;8.666;2023-03-11T13:50:08;99889.91;;;11.87;26.99
74895;BME280;63447;49.446;8.666;2023-03-11T13:52:46;99897.13;;;11.64;26.41
74895;BME280;63447;49.446;8.666;2023-03-11T13:55:24;99894.13;;;11.17;27.73
74895;BME280;63447;49.446;8.666;2023-03-11T13:57:56;99886.91;;;10.88;27.68
74895;BME280;63447;49.446;8.666;2023-03-11T14:00:27;99882.50;;;10.50;29.06
74895;BME280;63447;49.446;8.666;2023-03-11T14:02:58;99888.47;;;10.40;29.11
74895;BME280;63447;49.446;8.666;2023-03-11T14:05:31;99880.81;;;10.13;28.16
74895;BME280;63447;49.446;8.666;2023-03-11T14:10:51;99877.09;;;9.97;34.78
74895;BME280;63447;49.446;8.666;2023-03-11T14:13:19;99885.16;;;9.27;34.04
74895;BME280;63447;49.446;8.666;2023-03-11T14:15:51;99871.41;;;7.66;38.22
74895;BME280;63447;49.446;8.666;2023-03-11T14:20:52;99893.41;;;8.39;36.11
74895;BME280;63447;49.446;8.666;2023-03-11T14:23:18;99891.06;;;8.03;36.77
74895;BME280;63447;49.446;8.666;2023-03-11T14:25:44;99895.47;;;7.61;38.73
74895;BME280;63447;49.446;8.666;2023-03-11T14:28:19;99892.53;;;8.00;38.09
74895;BME280;63447;49.446;8.666;2023-03-11T14:31:03;99897.47;;;8.24;36.08
74895;BME280;63447;49.446;8.666;2023-03-11T14:33:29;99905.16;;;7.67;38.40
74895;BME280;63447;49.446;8.666;2023-03-11T14:36:02;99909.09;;;8.30;37.70
74895;BME280;63447;49.446;8.666;2023-03-11T14:38:31;99908.34;;;8.03;37.05
74895;BME280;63447;49.446;8.666;2023-03-11T14:41:03;99923.94;;;8.84;37.69
74895;BME280;63447;49.446;8.666;2023-03-11T14:43:33;99921.69;;;8.39;36.98
74895;BME280;63447;49.446;8.666;2023-03-11T14:46:02;99920.19;;;7.69;37.43
74895;BME280;63447;49.446;8.666;2023-03-11T14:48:36;99914.03;;;7.72;37.44
74895;BME280;63447;49.446;8.666;2023-03-11T14:51:06;99918.06;;;7.92;37.39
74895;BME280;63447;49.446;8.666;2023-03-11T14:53:36;99920.66;;;7.89;37.75
74895;BME280;63447;49.446;8.666;2023-03-11T14:56:07;99922.75;;;7.23;38.29
74895;BME280;63447;49.446;8.666;2023-03-11T14:58:42;99913.56;;;7.27;38.90
74895;BME280;63447;49.446;8.666;2023-03-11T15:03:42;99908.44;;;6.77;39.00
74895;BME280;63447;49.446;8.666;2023-03-11T15:06:15;99910.44;;;7.11;39.67
74895;BME280;63447;49.446;8.666;2023-03-11T15:08:46;99910.03;;;7.53;38.98
74895;BME280;63447;49.446;8.666;2023-03-11T15:13:44;99907.44;;;6.65;40.28
74895;BME280;63447;49.446;8.666;2023-03-11T15:16:31;99907.13;;;6.66;40.36
74895;BME280;63447;49.446;8.666;2023-03-11T15:21:49;99903.34;;;7.10;38.79
74895;BME280;63447;49.446;8.666;2023-03-11T15:24:21;99915.81;;;7.25;37.94
74895;BME280;63447;49.446;8.666;2023-03-11T15:27:04;99902.88;;;7.17;37.26
74895;BME280;63447;49.446;8.666;2023-03-11T15:29:32;99909.34;;;7.56;37.99
74895;BME280;63447;49.446;8.666;2023-03-11T15:31:59;99901.09;;;7.12;38.22